createdAt,value
2023-04-18T00:01:49.033Z,4.40
2023-04-18T00:04:18.277Z,4.20
2023-04-18T00:06:47.246Z,4.63
2023-04-18T00:09:15.216Z,4.47
2023-04-18T00:11:45.880Z,4.57
2023-04-18T00:14:14.570Z,4.35
2023-04-18T00:16:44.121Z,4.47
2023-04-18T00:19:12.570Z,4.03
2023-04-18T00:21:45.009Z,4.50
2023-04-18T00:24:13.581Z,4.30
2023-04-18T00:26:41.708Z,4.78
2023-04-18T00:29:09.639Z,4.40
2023-04-18T00:31:37.688Z,4.45
2023-04-18T00:34:07.001Z,4.15
2023-04-18T00:36:34.943Z,4.43
2023-04-18T00:39:03.197Z,4.43
2023-04-18T00:41:31.394Z,4.72
2023-04-18T00:43:59.324Z,4.30
2023-04-18T00:46:27.315Z,4.80
2023-04-18T00:48:55.629Z,4.57
2023-04-18T00:51:25.664Z,4.50
2023-04-18T00:53:54.634Z,4.18
2023-04-18T00:56:23.835Z,4.22
2023-04-18T00:58:52.259Z,4.43
2023-04-18T01:01:20.228Z,4.57
2023-04-18T01:03:48.317Z,4.53
2023-04-18T01:06:16.671Z,4.97
2023-04-18T01:08:49.343Z,4.82
2023-04-18T01:11:17.373Z,4.50
2023-04-18T01:13:59.893Z,4.22
2023-04-18T01:16:28.321Z,4.45
2023-04-18T01:18:56.559Z,4.63
2023-04-18T01:21:24.480Z,4.90
2023-04-18T01:23:54.534Z,4.47
2023-04-18T01:26:23.873Z,4.88
2023-04-18T01:28:51.831Z,4.57
2023-04-18T01:31:19.839Z,4.25
2023-04-18T01:33:47.971Z,4.68
2023-04-18T01:36:15.971Z,4.45
2023-04-18T01:38:44.029Z,4.10
2023-04-18T01:41:11.968Z,4.40
2023-04-18T01:43:41.269Z,4.93
2023-04-18T01:46:09.241Z,4.35
2023-04-18T01:48:37.209Z,4.97
2023-04-18T01:51:05.883Z,4.85
2023-04-18T01:53:33.818Z,4.15
2023-04-18T01:56:01.782Z,4.47
2023-04-18T01:58:29.691Z,4.25
2023-04-18T02:00:59.013Z,4.50
2023-04-18T02:03:27.258Z,4.43
2023-04-18T02:05:55.432Z,4.60
2023-04-18T02:08:23.502Z,4.60
2023-04-18T02:10:51.443Z,4.32
2023-04-18T02:13:19.400Z,4.00
2023-04-18T02:15:47.671Z,6.47
2023-04-18T02:18:17.416Z,4.85
2023-04-18T02:20:45.634Z,4.40
2023-04-18T02:23:13.620Z,4.32
2023-04-18T02:25:41.547Z,4.82
2023-04-18T02:28:09.476Z,4.82
2023-04-18T02:30:37.390Z,5.05
2023-04-18T02:33:05.608Z,4.95
2023-04-18T02:35:34.970Z,4.60
2023-04-18T02:38:02.955Z,4.40
2023-04-18T02:40:30.892Z,4.78
2023-04-18T02:42:59.257Z,4.63
2023-04-18T02:45:27.248Z,4.75
2023-04-18T02:47:56.651Z,4.38
2023-04-18T02:50:25.202Z,5.20
2023-04-18T02:52:54.581Z,4.40
2023-04-18T02:55:23.040Z,4.63
2023-04-18T02:57:51.050Z,4.65
2023-04-18T03:00:19.717Z,4.68
2023-04-18T03:02:47.777Z,4.78
2023-04-18T03:05:15.866Z,4.47
2023-04-18T03:07:43.845Z,4.45
2023-04-18T03:10:13.381Z,4.80
2023-04-18T03:12:41.473Z,4.10
2023-04-18T03:15:10.223Z,4.65
2023-04-18T03:17:38.306Z,4.53
2023-04-18T03:20:08.019Z,4.28
2023-04-18T03:22:35.964Z,4.60
2023-04-18T03:25:03.880Z,4.90
2023-04-18T03:27:33.266Z,4.68
2023-04-18T03:30:01.246Z,5.10
2023-04-18T03:32:29.173Z,4.40
2023-04-18T03:34:57.132Z,4.75
2023-04-18T03:37:25.118Z,4.68
2023-04-18T03:39:53.241Z,4.85
2023-04-18T03:42:21.243Z,4.70
2023-04-18T03:44:50.581Z,4.53
2023-04-18T03:47:18.537Z,4.53
2023-04-18T03:49:46.650Z,4.80
2023-04-18T03:52:16.029Z,4.72
2023-04-18T03:54:44.125Z,4.57
2023-04-18T03:57:12.092Z,5.07
2023-04-18T03:59:40.021Z,4.63
2023-04-18T04:02:09.666Z,4.82
2023-04-18T04:04:37.826Z,4.53
2023-04-18T04:07:05.899Z,5.03
2023-04-18T04:09:33.869Z,4.65
2023-04-18T04:12:03.020Z,4.35
2023-04-18T04:14:30.975Z,4.97
2023-04-18T04:16:59.072Z,4.95
2023-04-18T04:19:28.396Z,4.28
2023-04-18T04:21:56.313Z,5.18
2023-04-18T04:24:24.268Z,4.75
2023-04-18T04:26:52.205Z,4.85
2023-04-18T04:29:21.467Z,4.60
2023-04-18T04:31:49.493Z,4.85
2023-04-18T04:34:17.672Z,4.28
2023-04-18T04:36:48.163Z,4.63
2023-04-18T04:39:17.424Z,5.22
2023-04-18T04:41:47.141Z,4.75
2023-04-18T04:44:17.947Z,4.82
2023-04-18T04:46:48.137Z,4.40
2023-04-18T04:49:16.105Z,4.57
2023-04-18T04:51:44.402Z,4.97
2023-04-18T04:54:14.065Z,4.93
2023-04-18T04:56:44.984Z,4.18
2023-04-18T04:59:12.992Z,4.53
2023-04-18T05:01:43.487Z,4.47
2023-04-18T05:04:12.819Z,4.97
2023-04-18T05:06:41.368Z,4.43
2023-04-18T05:09:09.292Z,4.53
2023-04-18T05:11:41.773Z,4.60
2023-04-18T05:14:09.749Z,4.65
2023-04-18T05:16:37.733Z,4.32
2023-04-18T05:19:07.411Z,4.70
2023-04-18T05:21:35.663Z,4.60
2023-04-18T05:24:03.559Z,4.45
2023-04-18T05:26:34.079Z,4.38
2023-04-18T05:29:03.465Z,4.47
2023-04-18T05:31:31.469Z,4.63
2023-04-18T05:33:59.473Z,4.40
2023-04-18T05:36:27.779Z,4.70
2023-04-18T05:38:55.702Z,4.40
2023-04-18T05:41:24.041Z,4.35
2023-04-18T05:44:02.276Z,5.28
2023-04-18T05:46:34.637Z,4.63
2023-04-18T05:49:03.478Z,4.20
2023-04-18T05:51:34.275Z,4.20
2023-04-18T05:54:02.275Z,4.38
2023-04-18T05:56:32.274Z,4.32
2023-04-18T05:59:00.194Z,4.28
2023-04-18T06:01:28.738Z,4.38
2023-04-18T06:03:58.286Z,4.50
2023-04-18T06:06:27.356Z,4.47
2023-04-18T06:08:55.525Z,4.10
2023-04-18T06:11:23.514Z,3.65
2023-04-18T06:13:51.442Z,3.42
2023-04-18T06:16:19.423Z,4.57
2023-04-18T06:18:49.917Z,4.07
2023-04-18T06:21:22.121Z,4.35
2023-04-18T06:23:50.074Z,4.10
2023-04-18T06:26:18.331Z,4.22
2023-04-18T06:28:46.389Z,3.85
2023-04-18T06:31:14.404Z,3.88
2023-04-18T06:33:42.400Z,4.05
2023-04-18T06:36:10.761Z,3.92
2023-04-18T06:38:40.082Z,3.95
2023-04-18T06:41:08.045Z,4.18
2023-04-18T06:43:36.538Z,4.10
2023-04-18T06:46:06.170Z,3.80
2023-04-18T06:48:34.251Z,3.75
2023-04-18T06:51:02.155Z,4.03
2023-04-18T06:53:30.592Z,3.58
2023-04-18T06:56:00.396Z,3.65
2023-04-18T06:58:28.476Z,3.30
2023-04-18T07:00:56.430Z,3.50
2023-04-18T07:03:24.554Z,4.03
2023-04-18T07:05:55.662Z,3.58
2023-04-18T07:08:23.676Z,3.20
2023-04-18T07:10:51.679Z,3.45
2023-04-18T07:13:21.013Z,3.00
2023-04-18T07:15:49.068Z,3.35
2023-04-18T07:18:30.258Z,3.22
2023-04-18T07:21:07.527Z,3.40
2023-04-18T07:23:36.093Z,3.47
2023-04-18T07:26:06.473Z,3.83
2023-04-18T07:28:35.797Z,3.67
2023-04-18T07:31:04.611Z,3.55
2023-04-18T07:33:33.978Z,3.53
2023-04-18T07:36:02.795Z,3.90
2023-04-18T07:38:30.742Z,3.85
2023-04-18T07:41:03.394Z,3.28
2023-04-18T07:43:31.399Z,3.08
2023-04-18T07:46:00.746Z,3.20
2023-04-18T07:48:28.799Z,3.03
2023-04-18T07:50:56.754Z,3.55
2023-04-18T07:53:24.770Z,3.45
2023-04-18T07:55:54.401Z,2.90
2023-04-18T07:58:22.493Z,3.38
2023-04-18T08:00:50.660Z,3.38
2023-04-18T08:03:28.346Z,3.20
2023-04-18T08:05:59.819Z,3.40
2023-04-18T08:08:29.531Z,3.40
2023-04-18T08:10:57.475Z,3.45
2023-04-18T08:13:25.430Z,3.25
2023-04-18T08:15:53.467Z,3.22
2023-04-18T08:18:23.841Z,3.17
2023-04-18T08:20:51.851Z,2.88
2023-04-18T08:23:19.865Z,3.22
2023-04-18T08:25:51.013Z,3.72
2023-04-18T08:28:19.110Z,3.25
2023-04-18T08:30:49.110Z,3.17
2023-04-18T08:33:17.287Z,3.53
2023-04-18T08:35:46.776Z,3.10
2023-04-18T08:38:14.795Z,2.80
2023-04-18T08:40:45.533Z,2.92
2023-04-18T08:43:15.199Z,3.08
2023-04-18T08:45:43.538Z,2.90
2023-04-18T08:48:13.802Z,2.65
2023-04-18T08:50:41.803Z,2.67
2023-04-18T08:53:11.934Z,2.65
2023-04-18T08:55:40.540Z,4.28
2023-04-18T08:58:12.527Z,2.65
2023-04-18T09:00:40.638Z,2.83
2023-04-18T09:03:15.522Z,2.88
2023-04-18T09:05:43.576Z,2.75
2023-04-18T09:08:25.149Z,3.50
2023-04-18T09:10:53.160Z,2.90
2023-04-18T09:13:40.437Z,2.80
2023-04-18T09:16:08.592Z,3.10
2023-04-18T09:18:36.603Z,2.85
2023-04-18T09:21:19.419Z,3.30
2023-04-18T09:23:50.426Z,3.22
2023-04-18T09:26:33.647Z,3.30
2023-04-18T09:29:03.264Z,3.17
2023-04-18T09:31:31.409Z,2.83
2023-04-18T09:34:00.726Z,3.00
2023-04-18T09:36:28.994Z,3.25
2023-04-18T09:38:58.409Z,2.95
2023-04-18T09:41:27.099Z,3.00
2023-04-18T09:44:14.486Z,2.92
2023-04-18T09:46:47.815Z,2.95
2023-04-18T09:49:16.318Z,3.15
2023-04-18T09:51:47.493Z,2.47
2023-04-18T09:54:18.189Z,2.80
2023-04-18T09:56:47.958Z,2.97
2023-04-18T09:59:22.696Z,2.42
2023-04-18T10:01:52.120Z,2.50
2023-04-18T10:04:21.313Z,2.88
2023-04-18T10:06:49.971Z,2.60
2023-04-18T10:09:19.711Z,2.75
2023-04-18T10:11:48.267Z,2.63
2023-04-18T10:14:17.415Z,2.75
2023-04-18T10:16:50.491Z,2.55
2023-04-18T10:19:23.834Z,2.53
2023-04-18T10:21:56.076Z,2.53
2023-04-18T10:27:12.165Z,2.67
2023-04-18T10:29:50.680Z,2.60
2023-04-18T10:32:20.182Z,2.55
2023-04-18T10:34:48.620Z,2.70
2023-04-18T10:37:17.746Z,3.00
2023-04-18T10:39:57.405Z,2.70
2023-04-18T10:43:00.530Z,2.63
2023-04-18T10:45:33.373Z,2.70
2023-04-18T10:48:24.363Z,2.55
2023-04-18T10:51:17.612Z,2.60
2023-04-18T10:53:52.635Z,2.50
2023-04-18T10:56:21.099Z,2.90
2023-04-18T10:58:53.727Z,2.60
2023-04-18T11:01:31.215Z,2.75
2023-04-18T11:04:01.175Z,2.60
2023-04-18T11:06:32.394Z,3.20
2023-04-18T11:09:13.655Z,2.83
2023-04-18T11:11:43.459Z,2.35
2023-04-18T11:14:13.260Z,3.00
2023-04-18T11:16:41.604Z,2.75
2023-04-18T11:19:20.970Z,2.97
2023-04-18T11:21:49.205Z,2.50
2023-04-18T11:24:24.071Z,2.53
2023-04-18T11:26:56.033Z,3.00
2023-04-18T11:29:25.729Z,2.65
2023-04-18T11:31:58.297Z,2.95
2023-04-18T11:34:30.387Z,2.63
2023-04-18T11:36:58.549Z,3.10
2023-04-18T11:39:28.211Z,2.60
2023-04-18T11:41:57.239Z,2.50
2023-04-18T11:44:27.765Z,2.50
2023-04-18T11:46:55.858Z,2.60
2023-04-18T11:49:28.244Z,2.40
2023-04-18T11:51:56.481Z,2.67
2023-04-18T11:54:38.632Z,2.95
2023-04-18T11:57:07.096Z,2.95
2023-04-18T11:59:36.464Z,3.00
2023-04-18T12:02:16.144Z,2.97
2023-04-18T12:04:56.131Z,3.20
2023-04-18T12:07:36.115Z,3.05
2023-04-18T12:10:06.257Z,2.63
2023-04-18T12:12:34.888Z,2.90
2023-04-18T12:15:09.944Z,2.58
2023-04-18T12:17:38.785Z,3.13
2023-04-18T12:20:10.022Z,3.17
2023-04-18T12:22:40.022Z,3.35
2023-04-18T12:25:19.982Z,3.40
2023-04-18T12:27:52.309Z,3.15
2023-04-18T12:32:52.424Z,3.50
2023-04-18T12:35:21.672Z,2.88
2023-04-18T12:37:51.034Z,3.30
2023-04-18T12:40:19.866Z,3.15
2023-04-18T12:42:48.501Z,3.00
2023-04-18T12:45:17.685Z,3.47
2023-04-18T12:47:51.536Z,3.80
2023-04-18T12:50:22.019Z,3.40
2023-04-18T12:52:51.924Z,3.38
2023-04-18T12:55:19.900Z,3.20
2023-04-18T12:57:54.263Z,3.45
2023-04-18T13:00:23.488Z,3.53
2023-04-18T13:02:53.456Z,3.10
2023-04-18T13:05:23.313Z,2.92
2023-04-18T13:10:41.150Z,3.50
2023-04-18T13:13:09.169Z,3.45
2023-04-18T13:15:37.275Z,3.65
2023-04-18T13:18:06.959Z,3.40
2023-04-18T13:20:35.829Z,2.83
2023-04-18T13:23:04.155Z,3.47
2023-04-18T13:25:32.459Z,3.80
2023-04-18T13:28:01.050Z,3.80
2023-04-18T13:30:29.329Z,3.80
2023-04-18T13:33:00.247Z,3.90
2023-04-18T13:35:29.769Z,4.03
2023-04-18T13:37:57.732Z,3.80
2023-04-18T13:40:25.676Z,3.95
2023-04-18T13:42:53.645Z,3.83
2023-04-18T13:45:21.679Z,3.45
2023-04-18T13:47:49.728Z,3.70
2023-04-18T13:50:17.689Z,3.60
2023-04-18T13:52:49.272Z,3.22
2023-04-18T13:55:17.961Z,3.40
2023-04-18T13:57:45.976Z,3.58
2023-04-18T14:00:15.248Z,3.70
2023-04-18T14:02:43.575Z,3.70
2023-04-18T14:05:11.952Z,3.53
2023-04-18T14:07:42.595Z,3.42
2023-04-18T14:10:12.547Z,3.50
2023-04-18T14:12:41.039Z,3.47
2023-04-18T14:15:10.655Z,3.20
2023-04-18T14:17:38.639Z,3.70
2023-04-18T14:20:08.495Z,3.75
2023-04-18T14:22:36.691Z,3.50
2023-04-18T14:25:05.051Z,3.15
2023-04-18T14:27:34.379Z,3.60
2023-04-18T14:30:02.298Z,3.95
2023-04-18T14:32:32.966Z,3.95
2023-04-18T14:35:00.917Z,3.83
2023-04-18T14:37:28.810Z,3.05
2023-04-18T14:39:56.757Z,3.65
2023-04-18T14:42:24.768Z,3.58
2023-04-18T14:44:54.156Z,3.80
2023-04-18T14:47:24.245Z,3.50
2023-04-18T14:49:52.500Z,3.70
2023-04-18T14:52:20.445Z,4.03
2023-04-18T14:54:48.377Z,3.75
2023-04-18T14:57:16.325Z,3.50
2023-04-18T14:59:44.294Z,3.58
2023-04-18T15:02:13.791Z,3.53
2023-04-18T15:04:41.926Z,3.42
2023-04-18T15:07:10.113Z,3.60
2023-04-18T15:09:38.367Z,3.55
2023-04-18T15:12:07.593Z,3.80
2023-04-18T15:14:36.181Z,3.55
2023-04-18T15:17:04.580Z,3.65
2023-04-18T15:19:34.505Z,4.00
2023-04-18T15:22:03.439Z,3.72
2023-04-18T15:24:31.535Z,3.88
2023-04-18T15:26:59.533Z,3.15
2023-04-18T15:29:27.623Z,4.10
2023-04-18T15:31:55.911Z,3.78
2023-04-18T15:34:23.889Z,3.75
2023-04-18T15:36:53.167Z,3.83
2023-04-18T15:39:23.522Z,3.40
2023-04-18T15:41:55.067Z,3.70
2023-04-18T15:44:23.333Z,8.63
2023-04-18T15:46:51.874Z,10.45
2023-04-18T15:49:20.034Z,12.77
2023-04-18T15:51:48.022Z,16.02
2023-04-18T15:54:17.346Z,28.35
2023-04-18T15:56:45.744Z,16.08
2023-04-18T15:59:16.496Z,15.80
2023-04-18T16:01:46.097Z,16.35
2023-04-18T16:04:14.586Z,17.17
2023-04-18T16:06:43.237Z,18.60
2023-04-18T16:09:11.277Z,17.38
2023-04-18T16:11:40.715Z,14.57
2023-04-18T16:14:08.824Z,15.35
2023-04-18T16:16:36.787Z,14.52
2023-04-18T16:19:05.513Z,14.70
2023-04-18T16:21:33.582Z,13.43
2023-04-18T16:24:04.443Z,13.13
2023-04-18T16:26:32.473Z,12.88
2023-04-18T16:29:01.743Z,13.05
2023-04-18T16:31:29.800Z,11.68
2023-04-18T16:33:57.910Z,11.80
2023-04-18T16:36:26.016Z,11.73
2023-04-18T16:38:54.000Z,10.48
2023-04-18T16:41:22.178Z,11.45
2023-04-18T16:43:50.245Z,10.52
2023-04-18T16:46:20.007Z,10.27
2023-04-18T16:51:20.605Z,9.88
2023-04-18T16:53:49.257Z,10.02
2023-04-18T16:56:17.290Z,10.25
2023-04-18T16:58:45.490Z,9.77
2023-04-18T17:01:13.543Z,9.95
2023-04-18T17:03:42.952Z,9.70
2023-04-18T17:06:11.029Z,9.95
2023-04-18T17:08:39.063Z,9.07
2023-04-18T17:11:08.083Z,9.05
2023-04-18T17:13:36.424Z,8.82
2023-04-18T17:16:04.534Z,8.55
2023-04-18T17:18:33.078Z,9.52
2023-04-18T17:21:02.476Z,8.10
2023-04-18T17:23:32.654Z,9.25
2023-04-18T17:26:00.961Z,8.45
2023-04-18T17:28:28.932Z,7.90
2023-04-18T17:30:57.521Z,7.40
2023-04-18T17:33:25.560Z,8.07
2023-04-18T17:35:53.801Z,8.27
2023-04-18T17:38:23.168Z,7.30
2023-04-18T17:40:59.675Z,8.18
2023-04-18T17:43:27.867Z,8.15
2023-04-18T17:45:56.981Z,7.95
2023-04-18T17:48:25.135Z,7.15
2023-04-18T17:50:53.058Z,7.00
2023-04-18T17:53:21.011Z,8.13
2023-04-18T17:55:52.916Z,6.28
2023-04-18T17:58:21.009Z,7.10
2023-04-18T18:00:49.104Z,7.35
2023-04-18T18:03:18.042Z,7.00
2023-04-18T18:05:47.125Z,6.57
2023-04-18T18:08:15.391Z,6.22
2023-04-18T18:10:44.333Z,6.20
2023-04-18T18:13:13.742Z,6.40
2023-04-18T18:15:41.651Z,6.03
2023-04-18T18:18:09.643Z,6.38
2023-04-18T18:20:37.561Z,6.03
2023-04-18T18:23:06.828Z,6.03
2023-04-18T18:25:37.842Z,6.35
2023-04-18T18:28:07.343Z,6.10
2023-04-18T18:30:37.993Z,5.93
2023-04-18T18:33:08.270Z,6.43
2023-04-18T18:35:36.322Z,5.85
2023-04-18T18:38:04.392Z,5.40
2023-04-18T18:40:32.371Z,5.90
2023-04-18T18:43:01.621Z,5.63
2023-04-18T18:45:29.706Z,5.43
2023-04-18T18:47:59.079Z,5.00
2023-04-18T18:50:27.132Z,5.90
2023-04-18T18:52:57.584Z,5.43
2023-04-18T18:55:25.682Z,5.05
2023-04-18T18:57:53.725Z,5.30
2023-04-18T19:00:21.849Z,5.60
2023-04-18T19:02:50.015Z,5.00
2023-04-18T19:05:19.415Z,5.18
2023-04-18T19:07:48.308Z,5.30
2023-04-18T19:10:16.236Z,5.38
2023-04-18T19:12:44.486Z,5.13
2023-04-18T19:15:13.125Z,4.90
2023-04-18T19:17:41.655Z,4.43
2023-04-18T19:20:10.540Z,4.80
2023-04-18T19:22:40.139Z,4.22
2023-04-18T19:25:09.643Z,4.65
2023-04-18T19:27:37.668Z,4.28
2023-04-18T19:30:06.457Z,4.28
2023-04-18T19:32:34.502Z,4.25
2023-04-18T19:35:02.481Z,4.57
2023-04-18T19:37:33.260Z,4.20
2023-04-18T19:40:02.749Z,4.68
2023-04-18T19:42:30.927Z,4.47
2023-04-18T19:44:59.393Z,3.95
2023-04-18T19:47:27.998Z,3.90
2023-04-18T19:49:56.009Z,3.83
2023-04-18T19:52:23.974Z,3.75
2023-04-18T19:54:53.298Z,4.55
2023-04-18T19:57:22.692Z,4.40
2023-04-18T19:59:50.837Z,4.10
2023-04-18T20:02:19.013Z,4.00
2023-04-18T20:04:47.244Z,4.15
2023-04-18T20:07:15.343Z,3.80
2023-04-18T20:09:43.292Z,3.88
2023-04-18T20:12:11.190Z,3.45
2023-04-18T20:14:40.662Z,3.80
2023-04-18T20:17:08.703Z,4.05
2023-04-18T20:19:37.333Z,3.85
2023-04-18T20:22:05.922Z,4.22
2023-04-18T20:24:39.279Z,3.65
2023-04-18T20:27:07.425Z,3.95
2023-04-18T20:29:35.374Z,3.85
2023-04-18T20:32:04.778Z,3.97
2023-04-18T20:34:32.698Z,3.75
2023-04-18T20:37:00.799Z,3.92
2023-04-18T20:39:29.098Z,3.63
2023-04-18T20:41:57.791Z,3.83
2023-04-18T20:44:25.863Z,4.03
2023-04-18T20:46:54.117Z,3.30
2023-04-18T20:49:23.496Z,3.55
2023-04-18T20:51:51.469Z,3.42
2023-04-18T20:54:19.378Z,3.88
2023-04-18T20:56:47.320Z,3.83
2023-04-18T20:59:15.294Z,3.78
2023-04-18T21:01:43.271Z,3.45
2023-04-18T21:04:11.381Z,3.90
2023-04-18T21:06:40.921Z,3.80
2023-04-18T21:09:08.974Z,4.00
2023-04-18T21:11:36.941Z,3.50
2023-04-18T21:14:06.686Z,3.85
2023-04-18T21:16:36.021Z,3.47
2023-04-18T21:19:04.026Z,3.42
2023-04-18T21:21:34.239Z,3.42
2023-04-18T21:24:03.738Z,3.60
2023-04-18T21:26:31.933Z,3.85
2023-04-18T21:29:01.159Z,3.55
2023-04-18T21:31:31.716Z,3.40
2023-04-18T21:34:01.269Z,3.75
2023-04-18T21:36:30.970Z,3.78
2023-04-18T21:39:00.527Z,3.33
2023-04-18T21:41:29.857Z,3.47
2023-04-18T21:43:57.868Z,3.08
2023-04-18T21:46:26.103Z,3.05
2023-04-18T21:48:54.289Z,3.17
2023-04-18T21:51:22.504Z,3.35
2023-04-18T21:53:50.534Z,3.05
2023-04-18T21:56:20.693Z,3.95
2023-04-18T21:58:50.434Z,3.05
2023-04-18T22:01:18.480Z,3.35
2023-04-18T22:03:46.989Z,3.20
2023-04-18T22:06:14.988Z,3.65
2023-04-18T22:08:43.651Z,3.60
2023-04-18T22:11:13.651Z,3.70
2023-04-18T22:13:44.735Z,3.45
2023-04-18T22:16:14.124Z,3.10
2023-04-18T22:18:42.095Z,3.75
2023-04-18T22:21:10.550Z,3.42
2023-04-18T22:23:38.563Z,3.35
2023-04-18T22:26:08.581Z,3.40
2023-04-18T22:28:36.612Z,3.05
2023-04-18T22:31:04.714Z,3.30
2023-04-18T22:33:34.052Z,3.40
2023-04-18T22:36:02.169Z,3.30
2023-04-18T22:38:30.151Z,3.33
2023-04-18T22:41:00.403Z,3.10
2023-04-18T22:43:28.796Z,3.22
2023-04-18T22:45:56.821Z,3.20
2023-04-18T22:48:24.746Z,3.47
2023-04-18T22:50:54.330Z,3.65
2023-04-18T22:53:24.824Z,3.78
2023-04-18T22:55:52.757Z,3.60
2023-04-18T22:58:20.701Z,3.45
2023-04-18T23:00:48.648Z,3.42
2023-04-18T23:03:16.710Z,2.90
2023-04-18T23:05:44.935Z,3.58
2023-04-18T23:08:14.335Z,3.10
2023-04-18T23:10:44.756Z,3.33
2023-04-18T23:13:14.480Z,3.30
2023-04-18T23:15:42.527Z,3.45
2023-04-18T23:18:10.641Z,3.38
2023-04-18T23:20:38.605Z,3.58
2023-04-18T23:23:06.537Z,3.45
2023-04-18T23:25:35.913Z,3.15
2023-04-18T23:28:03.858Z,3.50
2023-04-18T23:30:31.829Z,3.28
2023-04-18T23:32:59.759Z,3.40
2023-04-18T23:35:27.987Z,3.10
2023-04-18T23:37:57.119Z,3.42
2023-04-18T23:40:25.169Z,3.60
2023-04-18T23:42:54.523Z,3.60
2023-04-18T23:45:24.369Z,3.53
2023-04-18T23:47:52.781Z,3.92
2023-04-18T23:50:23.547Z,3.40
2023-04-18T23:52:51.518Z,3.45
2023-04-18T23:55:19.400Z,3.72
2023-04-18T23:57:47.468Z,3.90
